DFSRT EDNY-EDDN
Flight info
| Callsign | DFSRT |
|---|---|
| Flight time | 0h 43m |
| Altitude | 12000 |
| Route | ALAGO1E ALAGO Z1 SUDEN/N0277F210 Z79 GUPIN N869 DKB |
| Aircraft | PC12/L-SDFGRWY/S |
Departure
| Time | 2026-04-23 07:46 |
|---|---|
| Airport | Bodensee Airport Friedrichshafen (EDNY) |
Arrival
| Time | 2026-04-23 08:30 |
|---|---|
| Airport | Nuremberg Airport (EDDN) |
| Time | Latitude | Longitude | Altitude | Speed | Heading |
|---|---|---|---|---|---|
| 2026-04-23 07:31 | 47.67405 | 9.52446 | 1365 ft | 0 kts | 315° |
| 2026-04-23 07:40 | 47.67417 | 9.52424 | 1365 ft | 8 kts | 296° |
| 2026-04-23 07:41 | 47.67395 | 9.52309 | 1364 ft | 16 kts | 237° |
| 2026-04-23 07:41 | 47.67331 | 9.52138 | 1363 ft | 21 kts | 240° |
| 2026-04-23 07:41 | 47.67256 | 9.51948 | 1363 ft | 22 kts | 240° |
| 2026-04-23 07:41 | 47.67177 | 9.51742 | 1360 ft | 24 kts | 239° |
| 2026-04-23 07:42 | 47.67094 | 9.51527 | 1358 ft | 25 kts | 240° |
| 2026-04-23 07:42 | 47.67006 | 9.51299 | 1355 ft | 25 kts | 240° |
| 2026-04-23 07:42 | 47.66915 | 9.51068 | 1351 ft | 26 kts | 241° |
| 2026-04-23 07:42 | 47.66824 | 9.50835 | 1345 ft | 26 kts | 239° |
| 2026-04-23 07:43 | 47.66766 | 9.50671 | 1349 ft | 15 kts | 261° |
| 2026-04-23 07:43 | 47.66827 | 9.50622 | 1350 ft | 0 kts | 30° |
| 2026-04-23 07:45 | 47.66856 | 9.50646 | 1346 ft | 10 kts | 25° |
| 2026-04-23 07:45 | 47.66941 | 9.50718 | 1346 ft | 17 kts | 35° |
| 2026-04-23 07:45 | 47.67023 | 9.50863 | 1349 ft | 25 kts | 59° |
| 2026-04-23 07:45 | 47.67177 | 9.51262 | 1358 ft | 64 kts | 59° |
| 2026-04-23 07:46 | 47.67465 | 9.51968 | 1384 ft | 92 kts | 60° |
| 2026-04-23 07:46 | 47.67818 | 9.52824 | 1563 ft | 99 kts | 56° |
| 2026-04-23 07:46 | 47.68235 | 9.53656 | 1882 ft | 102 kts | 52° |
| 2026-04-23 07:46 | 47.68642 | 9.54520 | 2276 ft | 102 kts | 59° |
| 2026-04-23 07:47 | 47.68970 | 9.55532 | 2551 ft | 117 kts | 68° |
| 2026-04-23 07:47 | 47.69340 | 9.56638 | 3047 ft | 122 kts | 60° |
| 2026-04-23 07:47 | 47.69823 | 9.57688 | 3493 ft | 126 kts | 58° |
| 2026-04-23 07:47 | 47.70338 | 9.58752 | 3951 ft | 127 kts | 55° |
| 2026-04-23 07:48 | 47.71137 | 9.59307 | 4396 ft | 140 kts | 358° |
| 2026-04-23 07:48 | 47.71980 | 9.58554 | 4890 ft | 149 kts | 317° |
| 2026-04-23 07:48 | 47.72677 | 9.57383 | 5312 ft | 151 kts | 317° |
| 2026-04-23 07:48 | 47.73401 | 9.56245 | 5741 ft | 152 kts | 320° |
| 2026-04-23 07:49 | 47.74143 | 9.55115 | 6193 ft | 154 kts | 320° |
| 2026-04-23 07:49 | 47.74896 | 9.53977 | 6674 ft | 155 kts | 320° |
| 2026-04-23 07:49 | 47.75651 | 9.52834 | 7127 ft | 155 kts | 320° |
| 2026-04-23 07:49 | 47.76409 | 9.51685 | 7552 ft | 156 kts | 320° |
| 2026-04-23 07:50 | 47.77170 | 9.50532 | 7990 ft | 157 kts | 320° |
| 2026-04-23 07:50 | 47.77935 | 9.49372 | 8429 ft | 157 kts | 320° |
| 2026-04-23 07:50 | 47.78700 | 9.48210 | 8900 ft | 157 kts | 320° |
| 2026-04-23 07:50 | 47.79473 | 9.47057 | 9355 ft | 156 kts | 326° |
| 2026-04-23 07:51 | 47.80411 | 9.46358 | 9804 ft | 149 kts | 354° |
| 2026-04-23 07:51 | 47.81431 | 9.46272 | 10253 ft | 147 kts | 5° |
| 2026-04-23 07:51 | 47.82461 | 9.46269 | 10669 ft | 148 kts | 5° |
| 2026-04-23 07:51 | 47.83494 | 9.46266 | 11082 ft | 149 kts | 4° |
| 2026-04-23 07:52 | 47.84533 | 9.46263 | 11497 ft | 149 kts | 4° |
| 2026-04-23 07:52 | 47.85574 | 9.46261 | 11902 ft | 150 kts | 4° |
| 2026-04-23 07:52 | 47.86607 | 9.46259 | 12312 ft | 153 kts | 4° |
| 2026-04-23 07:52 | 47.87756 | 9.46264 | 12350 ft | 177 kts | 4° |
| 2026-04-23 07:53 | 47.89053 | 9.46267 | 12357 ft | 195 kts | 3° |
| 2026-04-23 07:53 | 47.90456 | 9.46264 | 12362 ft | 208 kts | 3° |
| 2026-04-23 07:53 | 47.91945 | 9.46260 | 12358 ft | 219 kts | 3° |
| 2026-04-23 07:53 | 47.93496 | 9.46256 | 12355 ft | 226 kts | 3° |
| 2026-04-23 07:54 | 47.95086 | 9.46252 | 12359 ft | 231 kts | 2° |
| 2026-04-23 07:54 | 47.96708 | 9.46247 | 12356 ft | 234 kts | 2° |
| 2026-04-23 07:54 | 47.98354 | 9.46242 | 12360 ft | 239 kts | 2° |
| 2026-04-23 07:54 | 48.00034 | 9.46238 | 12358 ft | 243 kts | 2° |
| 2026-04-23 07:55 | 48.01738 | 9.46234 | 12353 ft | 246 kts | 2° |
| 2026-04-23 07:55 | 48.03457 | 9.46230 | 12352 ft | 248 kts | 2° |
| 2026-04-23 07:55 | 48.05186 | 9.46225 | 12357 ft | 249 kts | 2° |
| 2026-04-23 07:55 | 48.06922 | 9.46220 | 12353 ft | 248 kts | 2° |
| 2026-04-23 07:56 | 48.08641 | 9.46216 | 12352 ft | 246 kts | 2° |
| 2026-04-23 07:56 | 48.10345 | 9.46212 | 12356 ft | 244 kts | 2° |
| 2026-04-23 07:56 | 48.12044 | 9.46208 | 12356 ft | 243 kts | 2° |
| 2026-04-23 07:56 | 48.13713 | 9.46204 | 12353 ft | 242 kts | 2° |
| 2026-04-23 07:57 | 48.15395 | 9.46200 | 12354 ft | 241 kts | 2° |
| 2026-04-23 07:57 | 48.17072 | 9.46196 | 12352 ft | 241 kts | 2° |
| 2026-04-23 07:57 | 48.18746 | 9.46196 | 12359 ft | 241 kts | 2° |
| 2026-04-23 07:57 | 48.20422 | 9.46199 | 12351 ft | 241 kts | 2° |
| 2026-04-23 07:58 | 48.22095 | 9.46201 | 12365 ft | 239 kts | 2° |
| 2026-04-23 07:58 | 48.23765 | 9.46202 | 12341 ft | 241 kts | 2° |
| 2026-04-23 07:58 | 48.25440 | 9.46203 | 12349 ft | 240 kts | 2° |
| 2026-04-23 07:58 | 48.27112 | 9.46205 | 12347 ft | 240 kts | 2° |
| 2026-04-23 07:59 | 48.28786 | 9.46206 | 12349 ft | 240 kts | 2° |
| 2026-04-23 07:59 | 48.30459 | 9.46207 | 12346 ft | 241 kts | 2° |
| 2026-04-23 07:59 | 48.32135 | 9.46208 | 12349 ft | 241 kts | 2° |
| 2026-04-23 07:59 | 48.33811 | 9.46209 | 12349 ft | 241 kts | 2° |
| 2026-04-23 08:00 | 48.35474 | 9.46211 | 12347 ft | 242 kts | 2° |
| 2026-04-23 08:00 | 48.37162 | 9.46212 | 12349 ft | 242 kts | 2° |
| 2026-04-23 08:00 | 48.38843 | 9.46213 | 12349 ft | 241 kts | 2° |
| 2026-04-23 08:00 | 48.40519 | 9.46215 | 12349 ft | 241 kts | 2° |
| 2026-04-23 08:01 | 48.42198 | 9.46216 | 12348 ft | 241 kts | 2° |
| 2026-04-23 08:01 | 48.43878 | 9.46217 | 12348 ft | 241 kts | 2° |
| 2026-04-23 08:01 | 48.45560 | 9.46219 | 12349 ft | 242 kts | 2° |
| 2026-04-23 08:01 | 48.47243 | 9.46220 | 12346 ft | 241 kts | 2° |
| 2026-04-23 08:02 | 48.48903 | 9.46221 | 12350 ft | 242 kts | 2° |
| 2026-04-23 08:02 | 48.50587 | 9.46222 | 12350 ft | 242 kts | 2° |
| 2026-04-23 08:02 | 48.52264 | 9.46279 | 12350 ft | 240 kts | 8° |
| 2026-04-23 08:02 | 48.53854 | 9.46973 | 12348 ft | 238 kts | 26° |
| 2026-04-23 08:03 | 48.55317 | 9.48134 | 12348 ft | 238 kts | 29° |
| 2026-04-23 08:03 | 48.56773 | 9.49312 | 12347 ft | 237 kts | 28° |
| 2026-04-23 08:03 | 48.58233 | 9.50486 | 12347 ft | 237 kts | 28° |
| 2026-04-23 08:03 | 48.59692 | 9.51658 | 12346 ft | 238 kts | 28° |
| 2026-04-23 08:04 | 48.61156 | 9.52836 | 12344 ft | 238 kts | 28° |
| 2026-04-23 08:04 | 48.62598 | 9.53999 | 12344 ft | 238 kts | 28° |
| 2026-04-23 08:04 | 48.64061 | 9.55178 | 12345 ft | 238 kts | 28° |
| 2026-04-23 08:04 | 48.65520 | 9.56355 | 12347 ft | 238 kts | 28° |
| 2026-04-23 08:05 | 48.66979 | 9.57533 | 12347 ft | 238 kts | 28° |
| 2026-04-23 08:05 | 48.68438 | 9.58711 | 12347 ft | 238 kts | 28° |
| 2026-04-23 08:05 | 48.69898 | 9.59891 | 12352 ft | 238 kts | 28° |
| 2026-04-23 08:05 | 48.71356 | 9.61070 | 12353 ft | 238 kts | 28° |
| 2026-04-23 08:06 | 48.72817 | 9.62253 | 12351 ft | 237 kts | 28° |
| 2026-04-23 08:06 | 48.74274 | 9.63433 | 12350 ft | 237 kts | 28° |
| 2026-04-23 08:06 | 48.75728 | 9.64611 | 12350 ft | 237 kts | 28° |
| 2026-04-23 08:06 | 48.77177 | 9.65786 | 12355 ft | 236 kts | 28° |
| 2026-04-23 08:07 | 48.78625 | 9.66961 | 12360 ft | 236 kts | 28° |
| 2026-04-23 08:07 | 48.79903 | 9.68479 | 12355 ft | 236 kts | 51° |
| 2026-04-23 08:07 | 48.80639 | 9.70659 | 12353 ft | 234 kts | 57° |
| 2026-04-23 08:07 | 48.81784 | 9.72370 | 12363 ft | 231 kts | 34° |
| 2026-04-23 08:08 | 48.83168 | 9.73624 | 12370 ft | 232 kts | 29° |
| 2026-04-23 08:08 | 48.84587 | 9.74801 | 12367 ft | 233 kts | 28° |
| 2026-04-23 08:08 | 48.86031 | 9.75929 | 12369 ft | 233 kts | 21° |
| 2026-04-23 08:08 | 48.87604 | 9.76493 | 12369 ft | 232 kts | 11° |
| 2026-04-23 08:09 | 48.89111 | 9.77323 | 12366 ft | 232 kts | 29° |
| 2026-04-23 08:09 | 48.90419 | 9.78760 | 12363 ft | 233 kts | 42° |
| 2026-04-23 08:09 | 48.91475 | 9.80600 | 12365 ft | 234 kts | 51° |
| 2026-04-23 08:09 | 48.92450 | 9.82598 | 12365 ft | 236 kts | 51° |
| 2026-04-23 08:10 | 48.93462 | 9.84560 | 12366 ft | 236 kts | 50° |
| 2026-04-23 08:10 | 48.94505 | 9.86490 | 12367 ft | 236 kts | 49° |
| 2026-04-23 08:10 | 48.96583 | 9.90372 | 12367 ft | 237 kts | 50° |
| 2026-04-23 08:11 | 48.97622 | 9.92329 | 12367 ft | 237 kts | 50° |
| 2026-04-23 08:11 | 48.98307 | 9.93618 | 12367 ft | 237 kts | 50° |
| 2026-04-23 08:11 | 48.99342 | 9.95566 | 12370 ft | 237 kts | 50° |
| 2026-04-23 08:11 | 49.00380 | 9.97520 | 12370 ft | 237 kts | 50° |
| 2026-04-23 08:12 | 49.01751 | 10.00104 | 12368 ft | 237 kts | 50° |
| 2026-04-23 08:12 | 49.02806 | 10.02023 | 12368 ft | 235 kts | 44° |
| 2026-04-23 08:12 | 49.03667 | 10.03066 | 12370 ft | 234 kts | 33° |
| 2026-04-23 08:12 | 49.05048 | 10.04378 | 12372 ft | 234 kts | 31° |
| 2026-04-23 08:13 | 49.06419 | 10.05729 | 12368 ft | 234 kts | 34° |
| 2026-04-23 08:13 | 49.07743 | 10.07184 | 12370 ft | 235 kts | 36° |
| 2026-04-23 08:13 | 49.09047 | 10.08644 | 12365 ft | 235 kts | 36° |
| 2026-04-23 08:13 | 49.10375 | 10.10102 | 12365 ft | 235 kts | 35° |
| 2026-04-23 08:14 | 49.11706 | 10.11550 | 12370 ft | 235 kts | 35° |
| 2026-04-23 08:14 | 49.13039 | 10.13008 | 12373 ft | 235 kts | 35° |
| 2026-04-23 08:14 | 49.14370 | 10.14465 | 12371 ft | 235 kts | 35° |
| 2026-04-23 08:14 | 49.15703 | 10.15927 | 12370 ft | 235 kts | 35° |
| 2026-04-23 08:15 | 49.17034 | 10.17387 | 12373 ft | 236 kts | 35° |
| 2026-04-23 08:15 | 49.18366 | 10.18848 | 12372 ft | 235 kts | 35° |
| 2026-04-23 08:15 | 49.19698 | 10.20310 | 12373 ft | 236 kts | 35° |
| 2026-04-23 08:15 | 49.21026 | 10.21770 | 12373 ft | 235 kts | 35° |
| 2026-04-23 08:16 | 49.22356 | 10.23232 | 12372 ft | 235 kts | 35° |
| 2026-04-23 08:16 | 49.23686 | 10.24695 | 12385 ft | 235 kts | 35° |
| 2026-04-23 08:16 | 49.24996 | 10.26137 | 12383 ft | 235 kts | 35° |
| 2026-04-23 08:16 | 49.26324 | 10.27599 | 12386 ft | 235 kts | 35° |
| 2026-04-23 08:17 | 49.27650 | 10.29061 | 12382 ft | 235 kts | 35° |
| 2026-04-23 08:17 | 49.28975 | 10.30522 | 12383 ft | 234 kts | 35° |
| 2026-04-23 08:17 | 49.30297 | 10.31982 | 12387 ft | 234 kts | 35° |
| 2026-04-23 08:17 | 49.31623 | 10.33446 | 12386 ft | 235 kts | 35° |
| 2026-04-23 08:18 | 49.32950 | 10.34913 | 12388 ft | 235 kts | 35° |
| 2026-04-23 08:18 | 49.34283 | 10.36388 | 12224 ft | 240 kts | 35° |
| 2026-04-23 08:18 | 49.35649 | 10.37901 | 11921 ft | 242 kts | 35° |
| 2026-04-23 08:18 | 49.37014 | 10.39416 | 11628 ft | 242 kts | 35° |
| 2026-04-23 08:19 | 49.38363 | 10.40911 | 11332 ft | 241 kts | 35° |
| 2026-04-23 08:19 | 49.39723 | 10.42418 | 11036 ft | 241 kts | 35° |
| 2026-04-23 08:19 | 49.41081 | 10.43925 | 10745 ft | 241 kts | 35° |
| 2026-04-23 08:19 | 49.42438 | 10.45433 | 10457 ft | 240 kts | 35° |
| 2026-04-23 08:20 | 49.43797 | 10.46943 | 10154 ft | 240 kts | 35° |
| 2026-04-23 08:20 | 49.45188 | 10.48339 | 9826 ft | 239 kts | 25° |
| 2026-04-23 08:20 | 49.46744 | 10.49051 | 9531 ft | 235 kts | 9° |
| 2026-04-23 08:20 | 49.48361 | 10.49395 | 9214 ft | 231 kts | 8° |
| 2026-04-23 08:21 | 49.49939 | 10.49736 | 8903 ft | 228 kts | 8° |
| 2026-04-23 08:21 | 49.51485 | 10.50178 | 8590 ft | 224 kts | 17° |
| 2026-04-23 08:21 | 49.52862 | 10.51286 | 8274 ft | 225 kts | 35° |
| 2026-04-23 08:21 | 49.53921 | 10.53018 | 7911 ft | 221 kts | 53° |
| 2026-04-23 08:22 | 49.54551 | 10.55163 | 7564 ft | 220 kts | 71° |
| 2026-04-23 08:22 | 49.54700 | 10.57519 | 7164 ft | 224 kts | 90° |
| 2026-04-23 08:22 | 49.54492 | 10.59860 | 6783 ft | 223 kts | 95° |
| 2026-04-23 08:22 | 49.54259 | 10.62221 | 6366 ft | 222 kts | 95° |
| 2026-04-23 08:23 | 49.54036 | 10.64567 | 5959 ft | 220 kts | 95° |
| 2026-04-23 08:23 | 49.53852 | 10.66892 | 5546 ft | 218 kts | 92° |
| 2026-04-23 08:23 | 49.53677 | 10.69202 | 5142 ft | 216 kts | 94° |
| 2026-04-23 08:23 | 49.53451 | 10.71481 | 4722 ft | 215 kts | 96° |
| 2026-04-23 08:24 | 49.53215 | 10.73717 | 4564 ft | 204 kts | 96° |
| 2026-04-23 08:24 | 49.53023 | 10.75736 | 4562 ft | 178 kts | 95° |
| 2026-04-23 08:24 | 49.52845 | 10.77533 | 4557 ft | 162 kts | 95° |
| 2026-04-23 08:24 | 49.52683 | 10.79162 | 4543 ft | 151 kts | 95° |
| 2026-04-23 08:25 | 49.52527 | 10.80766 | 4374 ft | 153 kts | 95° |
| 2026-04-23 08:25 | 49.52364 | 10.82414 | 4155 ft | 157 kts | 95° |
| 2026-04-23 08:25 | 49.52200 | 10.84097 | 3938 ft | 162 kts | 95° |
| 2026-04-23 08:25 | 49.52031 | 10.85821 | 3726 ft | 165 kts | 96° |
| 2026-04-23 08:26 | 49.51859 | 10.87558 | 3488 ft | 161 kts | 96° |
| 2026-04-23 08:26 | 49.51697 | 10.89182 | 3278 ft | 148 kts | 96° |
| 2026-04-23 08:26 | 49.51551 | 10.90722 | 3082 ft | 141 kts | 96° |
| 2026-04-23 08:26 | 49.51408 | 10.92171 | 2899 ft | 132 kts | 96° |
| 2026-04-23 08:27 | 49.51273 | 10.93528 | 2712 ft | 127 kts | 96° |
| 2026-04-23 08:27 | 49.51144 | 10.94841 | 2549 ft | 121 kts | 96° |
| 2026-04-23 08:27 | 49.51018 | 10.96111 | 2388 ft | 120 kts | 97° |
| 2026-04-23 08:27 | 49.50898 | 10.97327 | 2236 ft | 105 kts | 96° |
| 2026-04-23 08:28 | 49.50791 | 10.98415 | 2091 ft | 101 kts | 95° |
| 2026-04-23 08:28 | 49.50689 | 10.99461 | 1944 ft | 98 kts | 96° |
| 2026-04-23 08:28 | 49.50594 | 11.00476 | 1830 ft | 92 kts | 97° |
| 2026-04-23 08:28 | 49.50493 | 11.01456 | 1693 ft | 94 kts | 96° |
| 2026-04-23 08:29 | 49.50386 | 11.02422 | 1562 ft | 93 kts | 96° |
| 2026-04-23 08:29 | 49.50302 | 11.03399 | 1431 ft | 91 kts | 95° |
| 2026-04-23 08:29 | 49.50206 | 11.04380 | 1284 ft | 93 kts | 94° |
| 2026-04-23 08:29 | 49.50110 | 11.05351 | 1156 ft | 91 kts | 94° |
| 2026-04-23 08:30 | 49.50018 | 11.06295 | 1024 ft | 84 kts | 96° |
| 2026-04-23 08:30 | 49.49969 | 11.06852 | 1020 ft | 24 kts | 99° |
| 2026-04-23 08:30 | 49.49925 | 11.07007 | 1019 ft | 13 kts | 156° |
| 2026-04-23 08:30 | 49.49840 | 11.07036 | 1017 ft | 11 kts | 160° |
| 2026-04-23 08:31 | 49.49766 | 11.07084 | 1017 ft | 12 kts | 141° |
| 2026-04-23 08:31 | 49.49731 | 11.07203 | 1018 ft | 13 kts | 125° |
| 2026-04-23 08:31 | 49.49692 | 11.07230 | 1019 ft | 0 kts | 178° |
| 2026-04-23 08:31 | 49.49673 | 11.07227 | 1020 ft | 7 kts | 190° |
| 2026-04-23 08:32 | 49.49613 | 11.07214 | 1021 ft | 10 kts | 188° |
| 2026-04-23 08:32 | 49.49545 | 11.07197 | 1022 ft | 8 kts | 190° |
| 2026-04-23 08:32 | 49.49509 | 11.07148 | 1022 ft | 9 kts | 297° |
| 2026-04-23 08:32 | 49.49542 | 11.07135 | 1022 ft | 0 kts | 9° |